sensor_id;sensor_type;location;lat;lon;timestamp;pressure;altitude;pressure_sealevel;temperature;humidity
24154;BME280;12312;53.362;-1.518;2023-04-07T00:01:34;99397.50;;;7.02;100.00
24154;BME280;12312;53.362;-1.518;2023-04-07T00:04:19;99402.72;;;7.03;100.00
24154;BME280;12312;53.362;-1.518;2023-04-07T00:07:04;99392.91;;;7.21;100.00
24154;BME280;12312;53.362;-1.518;2023-04-07T00:09:48;99393.00;;;7.04;100.00
24154;BME280;12312;53.362;-1.518;2023-04-07T00:12:33;99389.22;;;7.08;100.00
24154;BME280;12312;53.362;-1.518;2023-04-07T00:15:17;99389.84;;;7.13;100.00
24154;BME280;12312;53.362;-1.518;2023-04-07T00:18:01;99384.09;;;7.05;100.00
24154;BME280;12312;53.362;-1.518;2023-04-07T00:20:45;99389.56;;;7.02;100.00
24154;BME280;12312;53.362;-1.518;2023-04-07T00:23:29;99391.13;;;7.06;100.00
24154;BME280;12312;53.362;-1.518;2023-04-07T00:26:13;99401.88;;;7.03;100.00
24154;BME280;12312;53.362;-1.518;2023-04-07T00:28:58;99397.78;;;7.13;100.00
24154;BME280;12312;53.362;-1.518;2023-04-07T00:31:42;99396.59;;;7.03;100.00
24154;BME280;12312;53.362;-1.518;2023-04-07T00:34:26;99402.06;;;7.00;100.00
24154;BME280;12312;53.362;-1.518;2023-04-07T00:37:10;99396.75;;;7.00;100.00
24154;BME280;12312;53.362;-1.518;2023-04-07T00:39:54;99402.38;;;6.94;100.00
24154;BME280;12312;53.362;-1.518;2023-04-07T00:42:39;99406.63;;;6.81;100.00
24154;BME280;12312;53.362;-1.518;2023-04-07T00:45:23;99395.88;;;6.84;100.00
24154;BME280;12312;53.362;-1.518;2023-04-07T00:48:09;99406.13;;;6.90;100.00
24154;BME280;12312;53.362;-1.518;2023-04-07T00:50:53;99414.13;;;6.73;100.00
24154;BME280;12312;53.362;-1.518;2023-04-07T00:53:38;99412.41;;;6.72;100.00
24154;BME280;12312;53.362;-1.518;2023-04-07T00:56:22;99402.50;;;6.60;100.00
24154;BME280;12312;53.362;-1.518;2023-04-07T00:59:07;99403.84;;;6.67;100.00
24154;BME280;12312;53.362;-1.518;2023-04-07T01:02:15;99406.22;;;6.73;100.00
24154;BME280;12312;53.362;-1.518;2023-04-07T01:08:12;99418.84;;;6.83;100.00
24154;BME280;12312;53.362;-1.518;2023-04-07T01:13:51;99426.25;;;6.77;100.00
24154;BME280;12312;53.362;-1.518;2023-04-07T01:16:48;99422.41;;;6.82;100.00
24154;BME280;12312;53.362;-1.518;2023-04-07T01:20:21;99418.44;;;6.91;100.00
24154;BME280;12312;53.362;-1.518;2023-04-07T01:22:53;99425.50;;;6.90;100.00
24154;BME280;12312;53.362;-1.518;2023-04-07T01:25:53;99425.25;;;6.95;100.00
24154;BME280;12312;53.362;-1.518;2023-04-07T01:31:27;99420.47;;;6.86;100.00
24154;BME280;12312;53.362;-1.518;2023-04-07T01:34:13;99429.34;;;6.85;100.00
24154;BME280;12312;53.362;-1.518;2023-04-07T01:37:00;99434.63;;;6.85;100.00
24154;BME280;12312;53.362;-1.518;2023-04-07T01:39:45;99436.38;;;6.69;100.00
24154;BME280;12312;53.362;-1.518;2023-04-07T01:42:30;99441.78;;;6.83;100.00
24154;BME280;12312;53.362;-1.518;2023-04-07T01:45:16;99439.22;;;6.81;100.00
24154;BME280;12312;53.362;-1.518;2023-04-07T01:48:03;99438.28;;;6.50;100.00
24154;BME280;12312;53.362;-1.518;2023-04-07T01:50:48;99440.31;;;6.45;100.00
24154;BME280;12312;53.362;-1.518;2023-04-07T01:53:34;99432.63;;;6.40;100.00
24154;BME280;12312;53.362;-1.518;2023-04-07T01:56:20;99438.63;;;6.44;100.00
24154;BME280;12312;53.362;-1.518;2023-04-07T01:59:04;99437.03;;;6.40;100.00
24154;BME280;12312;53.362;-1.518;2023-04-07T02:01:48;99440.50;;;6.25;100.00
24154;BME280;12312;53.362;-1.518;2023-04-07T02:04:36;99445.69;;;6.26;100.00
24154;BME280;12312;53.362;-1.518;2023-04-07T02:07:30;99447.03;;;6.18;100.00
24154;BME280;12312;53.362;-1.518;2023-04-07T02:10:16;99453.69;;;6.42;100.00
24154;BME280;12312;53.362;-1.518;2023-04-07T02:13:05;99446.25;;;6.33;100.00
24154;BME280;12312;53.362;-1.518;2023-04-07T02:15:53;99451.50;;;6.50;100.00
24154;BME280;12312;53.362;-1.518;2023-04-07T02:18:39;99449.50;;;6.38;100.00
24154;BME280;12312;53.362;-1.518;2023-04-07T02:21:26;99456.00;;;6.48;100.00
24154;BME280;12312;53.362;-1.518;2023-04-07T02:24:10;99460.72;;;6.26;100.00
24154;BME280;12312;53.362;-1.518;2023-04-07T02:26:54;99464.97;;;6.28;100.00
24154;BME280;12312;53.362;-1.518;2023-04-07T02:29:40;99456.81;;;6.33;100.00
24154;BME280;12312;53.362;-1.518;2023-04-07T02:32:24;99455.44;;;6.26;100.00
24154;BME280;12312;53.362;-1.518;2023-04-07T02:35:09;99456.50;;;6.22;100.00
24154;BME280;12312;53.362;-1.518;2023-04-07T02:37:54;99454.00;;;6.19;100.00
24154;BME280;12312;53.362;-1.518;2023-04-07T02:40:38;99456.50;;;6.05;100.00
24154;BME280;12312;53.362;-1.518;2023-04-07T02:43:22;99453.84;;;6.22;100.00
24154;BME280;12312;53.362;-1.518;2023-04-07T02:46:08;99440.50;;;6.25;100.00
24154;BME280;12312;53.362;-1.518;2023-04-07T02:48:52;99444.94;;;6.07;100.00
24154;BME280;12312;53.362;-1.518;2023-04-07T02:51:36;99450.75;;;5.97;100.00
24154;BME280;12312;53.362;-1.518;2023-04-07T02:54:20;99451.06;;;5.91;100.00
24154;BME280;12312;53.362;-1.518;2023-04-07T02:57:04;99454.78;;;5.87;100.00
24154;BME280;12312;53.362;-1.518;2023-04-07T02:59:48;99447.41;;;5.93;100.00
24154;BME280;12312;53.362;-1.518;2023-04-07T03:02:33;99451.53;;;5.99;100.00
24154;BME280;12312;53.362;-1.518;2023-04-07T03:05:17;99460.91;;;5.87;100.00
24154;BME280;12312;53.362;-1.518;2023-04-07T03:08:01;99462.41;;;5.93;100.00
24154;BME280;12312;53.362;-1.518;2023-04-07T03:10:45;99468.13;;;5.84;100.00
24154;BME280;12312;53.362;-1.518;2023-04-07T03:13:29;99461.28;;;5.80;100.00
24154;BME280;12312;53.362;-1.518;2023-04-07T03:16:13;99469.19;;;5.80;100.00
24154;BME280;12312;53.362;-1.518;2023-04-07T03:18:57;99466.06;;;5.72;100.00
24154;BME280;12312;53.362;-1.518;2023-04-07T03:21:41;99468.25;;;5.81;100.00
24154;BME280;12312;53.362;-1.518;2023-04-07T03:24:25;99472.59;;;5.83;100.00
24154;BME280;12312;53.362;-1.518;2023-04-07T03:27:09;99468.03;;;5.68;100.00
24154;BME280;12312;53.362;-1.518;2023-04-07T03:29:53;99461.28;;;5.80;100.00
24154;BME280;12312;53.362;-1.518;2023-04-07T03:32:37;99473.69;;;5.78;100.00
24154;BME280;12312;53.362;-1.518;2023-04-07T03:35:21;99475.56;;;5.76;100.00
24154;BME280;12312;53.362;-1.518;2023-04-07T03:38:05;99478.69;;;5.84;100.00
24154;BME280;12312;53.362;-1.518;2023-04-07T03:40:49;99484.91;;;5.83;100.00
24154;BME280;12312;53.362;-1.518;2023-04-07T03:43:33;99477.03;;;5.81;100.00
24154;BME280;12312;53.362;-1.518;2023-04-07T03:46:20;99479.03;;;5.95;100.00
24154;BME280;12312;53.362;-1.518;2023-04-07T03:49:04;99484.63;;;5.89;100.00
24154;BME280;12312;53.362;-1.518;2023-04-07T03:51:49;99483.66;;;5.90;100.00
24154;BME280;12312;53.362;-1.518;2023-04-07T03:54:33;99487.56;;;5.83;100.00
24154;BME280;12312;53.362;-1.518;2023-04-07T03:57:18;99492.53;;;5.89;100.00
24154;BME280;12312;53.362;-1.518;2023-04-07T04:00:03;99493.47;;;5.88;100.00
24154;BME280;12312;53.362;-1.518;2023-04-07T04:02:47;99499.00;;;5.83;100.00
24154;BME280;12312;53.362;-1.518;2023-04-07T04:05:31;99493.78;;;5.82;100.00
24154;BME280;12312;53.362;-1.518;2023-04-07T04:08:15;99497.13;;;5.67;100.00
24154;BME280;12312;53.362;-1.518;2023-04-07T04:11:00;99504.72;;;5.56;100.00
24154;BME280;12312;53.362;-1.518;2023-04-07T04:13:44;99506.25;;;5.60;100.00
24154;BME280;12312;53.362;-1.518;2023-04-07T04:16:29;99507.34;;;5.56;100.00
24154;BME280;12312;53.362;-1.518;2023-04-07T04:19:14;99512.69;;;5.54;100.00
24154;BME280;12312;53.362;-1.518;2023-04-07T04:21:58;99511.81;;;5.53;100.00
24154;BME280;12312;53.362;-1.518;2023-04-07T04:24:42;99510.28;;;5.49;100.00
24154;BME280;12312;53.362;-1.518;2023-04-07T04:27:26;99514.84;;;5.46;100.00
24154;BME280;12312;53.362;-1.518;2023-04-07T04:30:10;99518.28;;;5.48;100.00
24154;BME280;12312;53.362;-1.518;2023-04-07T04:32:55;99516.47;;;5.48;100.00
24154;BME280;12312;53.362;-1.518;2023-04-07T04:35:38;99516.97;;;5.57;100.00
24154;BME280;12312;53.362;-1.518;2023-04-07T04:38:23;99527.31;;;5.61;100.00
24154;BME280;12312;53.362;-1.518;2023-04-07T04:41:07;99525.81;;;5.56;100.00
24154;BME280;12312;53.362;-1.518;2023-04-07T04:43:51;99532.00;;;5.54;100.00
24154;BME280;12312;53.362;-1.518;2023-04-07T04:46:35;99531.25;;;5.53;100.00
24154;BME280;12312;53.362;-1.518;2023-04-07T04:49:19;99532.09;;;5.53;100.00
24154;BME280;12312;53.362;-1.518;2023-04-07T04:52:03;99531.56;;;5.64;100.00
24154;BME280;12312;53.362;-1.518;2023-04-07T04:54:48;99532.38;;;5.66;100.00
24154;BME280;12312;53.362;-1.518;2023-04-07T04:57:32;99537.50;;;5.69;100.00
24154;BME280;12312;53.362;-1.518;2023-04-07T05:00:19;99524.81;;;5.58;100.00
24154;BME280;12312;53.362;-1.518;2023-04-07T05:03:04;99539.50;;;5.64;100.00
24154;BME280;12312;53.362;-1.518;2023-04-07T05:05:48;99536.44;;;5.54;100.00
24154;BME280;12312;53.362;-1.518;2023-04-07T05:08:32;99531.16;;;5.54;100.00
24154;BME280;12312;53.362;-1.518;2023-04-07T05:11:16;99543.50;;;5.53;100.00
24154;BME280;12312;53.362;-1.518;2023-04-07T05:14:00;99538.50;;;5.47;100.00
24154;BME280;12312;53.362;-1.518;2023-04-07T05:16:43;99531.69;;;5.43;100.00
24154;BME280;12312;53.362;-1.518;2023-04-07T05:19:28;99549.22;;;5.44;100.00
24154;BME280;12312;53.362;-1.518;2023-04-07T05:22:12;99550.44;;;5.37;100.00
24154;BME280;12312;53.362;-1.518;2023-04-07T05:24:56;99551.34;;;5.36;100.00
24154;BME280;12312;53.362;-1.518;2023-04-07T05:27:40;99553.63;;;5.25;100.00
24154;BME280;12312;53.362;-1.518;2023-04-07T05:30:25;99553.72;;;5.24;100.00
24154;BME280;12312;53.362;-1.518;2023-04-07T05:33:09;99558.13;;;5.23;100.00
24154;BME280;12312;53.362;-1.518;2023-04-07T05:35:53;99562.09;;;5.32;100.00
24154;BME280;12312;53.362;-1.518;2023-04-07T05:38:37;99562.63;;;5.40;100.00
24154;BME280;12312;53.362;-1.518;2023-04-07T05:41:21;99557.19;;;5.43;100.00
24154;BME280;12312;53.362;-1.518;2023-04-07T05:44:05;99568.47;;;5.46;100.00
24154;BME280;12312;53.362;-1.518;2023-04-07T05:46:49;99564.25;;;5.42;100.00
24154;BME280;12312;53.362;-1.518;2023-04-07T05:49:34;99570.41;;;5.43;100.00
24154;BME280;12312;53.362;-1.518;2023-04-07T05:52:18;99570.75;;;5.35;100.00
24154;BME280;12312;53.362;-1.518;2023-04-07T05:55:02;99575.59;;;5.44;100.00
24154;BME280;12312;53.362;-1.518;2023-04-07T05:57:46;99573.34;;;5.56;100.00
24154;BME280;12312;53.362;-1.518;2023-04-07T06:00:30;99573.19;;;5.77;100.00
24154;BME280;12312;53.362;-1.518;2023-04-07T06:03:15;99580.31;;;5.75;100.00
24154;BME280;12312;53.362;-1.518;2023-04-07T06:05:58;99581.16;;;5.94;100.00
24154;BME280;12312;53.362;-1.518;2023-04-07T06:08:42;99584.44;;;5.81;100.00
24154;BME280;12312;53.362;-1.518;2023-04-07T06:11:28;99587.91;;;5.83;100.00
24154;BME280;12312;53.362;-1.518;2023-04-07T06:14:12;99597.53;;;5.84;100.00
24154;BME280;12312;53.362;-1.518;2023-04-07T06:16:56;99596.88;;;5.79;100.00
24154;BME280;12312;53.362;-1.518;2023-04-07T06:19:40;99593.91;;;5.86;100.00
24154;BME280;12312;53.362;-1.518;2023-04-07T06:22:24;99595.88;;;6.00;100.00
24154;BME280;12312;53.362;-1.518;2023-04-07T06:25:08;99608.00;;;6.04;100.00
24154;BME280;12312;53.362;-1.518;2023-04-07T06:27:53;99600.72;;;6.09;100.00
24154;BME280;12312;53.362;-1.518;2023-04-07T06:30:38;99596.06;;;6.14;100.00
24154;BME280;12312;53.362;-1.518;2023-04-07T06:33:23;99609.00;;;6.20;100.00
24154;BME280;12312;53.362;-1.518;2023-04-07T06:36:08;99609.69;;;6.23;99.69
24154;BME280;12312;53.362;-1.518;2023-04-07T06:38:52;99614.59;;;6.31;99.32
24154;BME280;12312;53.362;-1.518;2023-04-07T06:41:36;99618.66;;;6.38;99.50
24154;BME280;12312;53.362;-1.518;2023-04-07T06:44:21;99624.25;;;6.32;99.42
24154;BME280;12312;53.362;-1.518;2023-04-07T06:47:05;99623.81;;;6.41;98.42
24154;BME280;12312;53.362;-1.518;2023-04-07T06:49:49;99630.50;;;6.48;98.81
24154;BME280;12312;53.362;-1.518;2023-04-07T06:52:34;99621.91;;;6.43;98.77
24154;BME280;12312;53.362;-1.518;2023-04-07T06:55:18;99625.31;;;6.63;98.10
24154;BME280;12312;53.362;-1.518;2023-04-07T06:58:01;99633.16;;;6.65;98.48
24154;BME280;12312;53.362;-1.518;2023-04-07T07:00:45;99626.47;;;6.75;97.64
24154;BME280;12312;53.362;-1.518;2023-04-07T07:03:30;99632.78;;;6.89;98.12
24154;BME280;12312;53.362;-1.518;2023-04-07T07:06:15;99628.94;;;7.12;98.09
24154;BME280;12312;53.362;-1.518;2023-04-07T07:08:58;99635.63;;;7.19;98.01
24154;BME280;12312;53.362;-1.518;2023-04-07T07:11:43;99636.41;;;7.21;97.53
24154;BME280;12312;53.362;-1.518;2023-04-07T07:14:27;99635.41;;;7.56;100.00
24154;BME280;12312;53.362;-1.518;2023-04-07T07:17:12;99644.81;;;7.29;97.47
24154;BME280;12312;53.362;-1.518;2023-04-07T07:19:56;99654.34;;;7.49;97.28
24154;BME280;12312;53.362;-1.518;2023-04-07T07:22:40;99642.44;;;7.40;94.76
24154;BME280;12312;53.362;-1.518;2023-04-07T07:25:24;99642.41;;;7.57;97.60
24154;BME280;12312;53.362;-1.518;2023-04-07T07:28:11;99654.97;;;7.69;96.35
24154;BME280;12312;53.362;-1.518;2023-04-07T07:30:55;99658.59;;;7.68;91.71
24154;BME280;12312;53.362;-1.518;2023-04-07T07:33:39;99661.16;;;7.70;95.53
24154;BME280;12312;53.362;-1.518;2023-04-07T07:36:24;99661.22;;;7.68;94.26
24154;BME280;12312;53.362;-1.518;2023-04-07T07:39:09;99662.00;;;7.70;92.99
24154;BME280;12312;53.362;-1.518;2023-04-07T07:41:54;99666.19;;;7.74;91.23
24154;BME280;12312;53.362;-1.518;2023-04-07T07:44:38;99669.63;;;7.76;91.32
24154;BME280;12312;53.362;-1.518;2023-04-07T07:47:22;99665.09;;;7.78;93.77
24154;BME280;12312;53.362;-1.518;2023-04-07T07:50:06;99671.69;;;8.02;92.29
24154;BME280;12312;53.362;-1.518;2023-04-07T07:52:50;99663.50;;;7.91;91.65
24154;BME280;12312;53.362;-1.518;2023-04-07T07:55:34;99662.72;;;7.89;91.10
24154;BME280;12312;53.362;-1.518;2023-04-07T07:58:18;99662.66;;;8.06;91.94
24154;BME280;12312;53.362;-1.518;2023-04-07T08:01:03;99675.47;;;7.98;90.77
24154;BME280;12312;53.362;-1.518;2023-04-07T08:03:47;99667.09;;;8.06;92.33
24154;BME280;12312;53.362;-1.518;2023-04-07T08:06:31;99668.66;;;8.25;91.40
24154;BME280;12312;53.362;-1.518;2023-04-07T08:09:17;99675.66;;;8.42;92.18
24154;BME280;12312;53.362;-1.518;2023-04-07T08:12:01;99675.22;;;8.49;90.61
24154;BME280;12312;53.362;-1.518;2023-04-07T08:14:45;99674.13;;;8.38;89.06
24154;BME280;12312;53.362;-1.518;2023-04-07T08:17:29;99679.19;;;8.58;89.90
24154;BME280;12312;53.362;-1.518;2023-04-07T08:20:13;99678.66;;;8.51;89.78
24154;BME280;12312;53.362;-1.518;2023-04-07T08:22:58;99677.63;;;8.69;91.43
24154;BME280;12312;53.362;-1.518;2023-04-07T08:25:42;99677.88;;;8.49;87.92
24154;BME280;12312;53.362;-1.518;2023-04-07T08:28:26;99685.75;;;8.51;88.00
24154;BME280;12312;53.362;-1.518;2023-04-07T08:31:10;99688.59;;;8.48;88.36
24154;BME280;12312;53.362;-1.518;2023-04-07T08:33:54;99678.50;;;8.39;88.39
24154;BME280;12312;53.362;-1.518;2023-04-07T08:36:40;99689.19;;;8.53;88.66
24154;BME280;12312;53.362;-1.518;2023-04-07T08:39:24;99685.91;;;8.63;88.82
24154;BME280;12312;53.362;-1.518;2023-04-07T08:42:10;99686.22;;;8.88;88.79
24154;BME280;12312;53.362;-1.518;2023-04-07T08:45:01;99687.50;;;8.97;90.79
24154;BME280;12312;53.362;-1.518;2023-04-07T08:47:46;99693.06;;;8.92;88.07
24154;BME280;12312;53.362;-1.518;2023-04-07T08:50:32;99692.47;;;8.87;86.97
24154;BME280;12312;53.362;-1.518;2023-04-07T08:53:42;99697.47;;;9.07;87.78
24154;BME280;12312;53.362;-1.518;2023-04-07T08:56:33;99700.72;;;9.13;87.23
24154;BME280;12312;53.362;-1.518;2023-04-07T08:59:17;99696.44;;;9.10;87.76
24154;BME280;12312;53.362;-1.518;2023-04-07T09:02:04;99696.53;;;9.08;86.05
24154;BME280;12312;53.362;-1.518;2023-04-07T09:04:48;99696.88;;;9.32;86.85
24154;BME280;12312;53.362;-1.518;2023-04-07T09:07:34;99694.88;;;9.22;86.34
24154;BME280;12312;53.362;-1.518;2023-04-07T09:10:18;99705.63;;;9.34;87.02
24154;BME280;12312;53.362;-1.518;2023-04-07T09:13:02;99704.16;;;9.29;84.51
24154;BME280;12312;53.362;-1.518;2023-04-07T09:15:46;99694.69;;;9.25;84.69
24154;BME280;12312;53.362;-1.518;2023-04-07T09:18:30;99693.09;;;9.36;85.60
24154;BME280;12312;53.362;-1.518;2023-04-07T09:21:15;99695.47;;;9.27;84.20
24154;BME280;12312;53.362;-1.518;2023-04-07T09:23:59;99696.09;;;9.60;85.22
24154;BME280;12312;53.362;-1.518;2023-04-07T09:26:43;99692.34;;;9.48;83.41
24154;BME280;12312;53.362;-1.518;2023-04-07T09:29:27;99695.13;;;9.75;84.20
24154;BME280;12312;53.362;-1.518;2023-04-07T09:32:11;99699.31;;;9.79;83.22
24154;BME280;12312;53.362;-1.518;2023-04-07T09:34:59;99694.19;;;9.90;81.72
24154;BME280;12312;53.362;-1.518;2023-04-07T09:37:43;99698.47;;;9.64;84.45
24154;BME280;12312;53.362;-1.518;2023-04-07T09:40:27;99696.63;;;9.51;81.79
24154;BME280;12312;53.362;-1.518;2023-04-07T09:43:17;99709.53;;;9.71;84.50
24154;BME280;12312;53.362;-1.518;2023-04-07T09:49:01;99699.69;;;9.87;81.75
24154;BME280;12312;53.362;-1.518;2023-04-07T09:51:55;99702.16;;;10.18;80.29
24154;BME280;12312;53.362;-1.518;2023-04-07T09:54:40;99705.22;;;9.98;81.75
24154;BME280;12312;53.362;-1.518;2023-04-07T09:57:25;99699.91;;;9.98;79.13
24154;BME280;12312;53.362;-1.518;2023-04-07T10:00:09;99699.13;;;9.82;80.90
24154;BME280;12312;53.362;-1.518;2023-04-07T10:02:55;99707.88;;;9.84;77.79
24154;BME280;12312;53.362;-1.518;2023-04-07T10:05:39;99702.44;;;9.85;80.44
24154;BME280;12312;53.362;-1.518;2023-04-07T10:08:23;99704.44;;;9.82;76.62
24154;BME280;12312;53.362;-1.518;2023-04-07T10:11:08;99695.72;;;10.22;76.30
24154;BME280;12312;53.362;-1.518;2023-04-07T10:13:53;99697.03;;;10.29;73.42
24154;BME280;12312;53.362;-1.518;2023-04-07T10:16:37;99698.56;;;10.19;72.73
24154;BME280;12312;53.362;-1.518;2023-04-07T10:19:23;99690.72;;;10.44;74.65
24154;BME280;12312;53.362;-1.518;2023-04-07T10:22:07;99688.69;;;10.61;72.23
24154;BME280;12312;53.362;-1.518;2023-04-07T10:24:59;99687.53;;;10.65;69.55
24154;BME280;12312;53.362;-1.518;2023-04-07T10:30:33;99694.78;;;9.95;74.03
24154;BME280;12312;53.362;-1.518;2023-04-07T10:33:50;99690.72;;;10.44;75.58
24154;BME280;12312;53.362;-1.518;2023-04-07T10:36:35;99683.06;;;10.66;74.46
24154;BME280;12312;53.362;-1.518;2023-04-07T10:39:20;99683.13;;;10.52;74.34
24154;BME280;12312;53.362;-1.518;2023-04-07T10:42:05;99682.09;;;10.67;72.05
24154;BME280;12312;53.362;-1.518;2023-04-07T10:44:49;99679.09;;;10.59;70.13
24154;BME280;12312;53.362;-1.518;2023-04-07T10:47:34;99681.41;;;10.51;70.86
24154;BME280;12312;53.362;-1.518;2023-04-07T10:50:20;99683.06;;;10.66;69.75
24154;BME280;12312;53.362;-1.518;2023-04-07T10:53:10;99682.69;;;10.72;64.49
24154;BME280;12312;53.362;-1.518;2023-04-07T10:55:56;99680.84;;;10.72;62.61
24154;BME280;12312;53.362;-1.518;2023-04-07T10:58:40;99677.81;;;10.78;65.05
24154;BME280;12312;53.362;-1.518;2023-04-07T11:01:24;99682.97;;;11.33;66.98
24154;BME280;12312;53.362;-1.518;2023-04-07T11:04:08;99682.22;;;10.92;65.97
24154;BME280;12312;53.362;-1.518;2023-04-07T11:06:53;99678.78;;;10.90;66.91
24154;BME280;12312;53.362;-1.518;2023-04-07T11:09:38;99677.56;;;11.08;68.69
24154;BME280;12312;53.362;-1.518;2023-04-07T11:12:23;99677.53;;;10.96;65.25
24154;BME280;12312;53.362;-1.518;2023-04-07T11:15:20;99673.09;;;11.09;65.29
24154;BME280;12312;53.362;-1.518;2023-04-07T11:20:56;99675.06;;;11.32;60.80
24154;BME280;12312;53.362;-1.518;2023-04-07T11:23:45;99666.69;;;10.72;63.20
24154;BME280;12312;53.362;-1.518;2023-04-07T11:26:36;99675.88;;;11.20;63.40
24154;BME280;12312;53.362;-1.518;2023-04-07T11:29:27;99669.28;;;12.25;61.12
24154;BME280;12312;53.362;-1.518;2023-04-07T11:32:12;99668.19;;;12.88;55.91
24154;BME280;12312;53.362;-1.518;2023-04-07T11:34:56;99670.56;;;13.27;52.45
24154;BME280;12312;53.362;-1.518;2023-04-07T11:37:40;99675.09;;;14.27;50.37
24154;BME280;12312;53.362;-1.518;2023-04-07T11:40:35;99676.91;;;14.15;51.05
24154;BME280;12312;53.362;-1.518;2023-04-07T11:43:25;99673.41;;;14.80;49.73
24154;BME280;12312;53.362;-1.518;2023-04-07T11:46:12;99666.19;;;15.23;48.86
24154;BME280;12312;53.362;-1.518;2023-04-07T11:49:11;99661.59;;;15.96;46.64
24154;BME280;12312;53.362;-1.518;2023-04-07T11:54:46;99671.38;;;15.35;42.51
24154;BME280;12312;53.362;-1.518;2023-04-07T11:57:30;99670.75;;;15.43;41.33
24154;BME280;12312;53.362;-1.518;2023-04-07T12:00:15;99663.16;;;15.16;41.09
24154;BME280;12312;53.362;-1.518;2023-04-07T12:03:08;99661.50;;;15.04;44.41
24154;BME280;12312;53.362;-1.518;2023-04-07T12:05:54;99663.91;;;16.40;41.93
24154;BME280;12312;53.362;-1.518;2023-04-07T12:08:40;99663.41;;;15.65;42.66
24154;BME280;12312;53.362;-1.518;2023-04-07T12:11:24;99654.94;;;16.21;40.97
24154;BME280;12312;53.362;-1.518;2023-04-07T12:14:08;99659.84;;;15.85;42.93
24154;BME280;12312;53.362;-1.518;2023-04-07T12:16:53;99657.91;;;14.94;43.35
24154;BME280;12312;53.362;-1.518;2023-04-07T12:19:40;99667.09;;;15.64;40.69
24154;BME280;12312;53.362;-1.518;2023-04-07T12:22:25;99656.69;;;16.01;39.69
24154;BME280;12312;53.362;-1.518;2023-04-07T12:25:09;99662.72;;;16.63;40.36
24154;BME280;12312;53.362;-1.518;2023-04-07T12:27:53;99657.66;;;16.00;44.02
24154;BME280;12312;53.362;-1.518;2023-04-07T12:30:37;99660.63;;;16.37;41.13
24154;BME280;12312;53.362;-1.518;2023-04-07T12:33:21;99651.06;;;15.83;43.25
24154;BME280;12312;53.362;-1.518;2023-04-07T12:36:05;99656.81;;;16.39;39.50
24154;BME280;12312;53.362;-1.518;2023-04-07T12:38:49;99658.16;;;16.45;40.28
24154;BME280;12312;53.362;-1.518;2023-04-07T12:41:33;99655.38;;;16.35;37.46
24154;BME280;12312;53.362;-1.518;2023-04-07T12:44:18;99652.84;;;16.34;36.39
24154;BME280;12312;53.362;-1.518;2023-04-07T12:47:02;99659.31;;;15.91;36.12
24154;BME280;12312;53.362;-1.518;2023-04-07T12:49:46;99649.91;;;15.56;34.54
24154;BME280;12312;53.362;-1.518;2023-04-07T12:52:30;99646.16;;;16.19;35.85
24154;BME280;12312;53.362;-1.518;2023-04-07T12:55:15;99644.09;;;17.00;35.16
24154;BME280;12312;53.362;-1.518;2023-04-07T12:58:00;99648.31;;;17.69;35.74
24154;BME280;12312;53.362;-1.518;2023-04-07T13:00:44;99656.97;;;17.15;32.89
24154;BME280;12312;53.362;-1.518;2023-04-07T13:03:29;99661.03;;;16.72;31.39
24154;BME280;12312;53.362;-1.518;2023-04-07T13:06:13;99660.53;;;16.08;34.35
24154;BME280;12312;53.362;-1.518;2023-04-07T13:08:57;99655.75;;;16.12;35.06
24154;BME280;12312;53.362;-1.518;2023-04-07T13:11:41;99661.31;;;15.17;36.49
24154;BME280;12312;53.362;-1.518;2023-04-07T13:14:25;99654.59;;;14.48;36.97
24154;BME280;12312;53.362;-1.518;2023-04-07T13:17:09;99657.28;;;14.48;36.11
24154;BME280;12312;53.362;-1.518;2023-04-07T13:19:53;99647.66;;;14.99;39.77
24154;BME280;12312;53.362;-1.518;2023-04-07T13:22:37;99649.34;;;14.69;39.46
24154;BME280;12312;53.362;-1.518;2023-04-07T13:25:22;99653.66;;;14.05;42.02
24154;BME280;12312;53.362;-1.518;2023-04-07T13:28:06;99650.00;;;14.28;40.19
24154;BME280;12312;53.362;-1.518;2023-04-07T13:30:50;99649.75;;;14.31;41.97
24154;BME280;12312;53.362;-1.518;2023-04-07T13:33:34;99654.41;;;13.96;42.58
24154;BME280;12312;53.362;-1.518;2023-04-07T13:36:20;99648.28;;;13.61;42.34
24154;BME280;12312;53.362;-1.518;2023-04-07T13:39:04;99648.78;;;13.55;40.36
24154;BME280;12312;53.362;-1.518;2023-04-07T13:41:49;99647.19;;;13.63;42.83
24154;BME280;12312;53.362;-1.518;2023-04-07T13:44:33;99657.03;;;13.52;43.86
24154;BME280;12312;53.362;-1.518;2023-04-07T13:47:20;99650.59;;;13.09;44.97
24154;BME280;12312;53.362;-1.518;2023-04-07T13:50:04;99648.22;;;13.39;43.61
24154;BME280;12312;53.362;-1.518;2023-04-07T13:52:49;99647.09;;;13.19;42.98
24154;BME280;12312;53.362;-1.518;2023-04-07T13:55:33;99645.94;;;13.00;43.22
24154;BME280;12312;53.362;-1.518;2023-04-07T13:58:17;99652.28;;;13.10;44.56
24154;BME280;12312;53.362;-1.518;2023-04-07T14:01:02;99656.47;;;12.78;45.54
24154;BME280;12312;53.362;-1.518;2023-04-07T14:03:47;99659.22;;;12.89;44.25
24154;BME280;12312;53.362;-1.518;2023-04-07T14:06:32;99655.06;;;13.08;44.43
24154;BME280;12312;53.362;-1.518;2023-04-07T14:09:16;99641.81;;;13.07;43.38
24154;BME280;12312;53.362;-1.518;2023-04-07T14:12:00;99655.13;;;12.96;42.49
24154;BME280;12312;53.362;-1.518;2023-04-07T14:14:44;99649.88;;;13.18;41.66
24154;BME280;12312;53.362;-1.518;2023-04-07T14:17:28;99646.31;;;13.63;43.91
24154;BME280;12312;53.362;-1.518;2023-04-07T14:20:12;99645.38;;;13.75;42.09
24154;BME280;12312;53.362;-1.518;2023-04-07T14:22:56;99646.59;;;14.04;44.82
24154;BME280;12312;53.362;-1.518;2023-04-07T14:25:40;99639.66;;;13.68;41.71
24154;BME280;12312;53.362;-1.518;2023-04-07T14:28:26;99639.03;;;13.43;42.31
24154;BME280;12312;53.362;-1.518;2023-04-07T14:31:14;99638.09;;;13.77;48.82
24154;BME280;12312;53.362;-1.518;2023-04-07T14:33:59;99637.09;;;13.89;43.10
24154;BME280;12312;53.362;-1.518;2023-04-07T14:36:54;99628.09;;;14.12;41.93
24154;BME280;12312;53.362;-1.518;2023-04-07T14:39:39;99626.16;;;14.03;40.89
24154;BME280;12312;53.362;-1.518;2023-04-07T14:42:22;99631.75;;;13.67;40.83
24154;BME280;12312;53.362;-1.518;2023-04-07T14:45:07;99629.06;;;13.56;42.31
24154;BME280;12312;53.362;-1.518;2023-04-07T14:47:51;99626.38;;;13.45;39.70